Time;durP1;ratioP1;P1;durP2;ratioP2;P2;SDS_P1;SDS_P2;PMS_P1;PMS_P2;Temp;Humidity;BMP_temperature;BMP_pressure;BME280_temperature;BME280_humidity;BME280_pressure;Samples;Min_cycle;Max_cycle;Signal;HPM_P1;HPM_P2
2021/04/16 00:00:59;;;;;;;3.75;2.40;;;28.90;34.00;;;;;;5002757;28;20053;-72
2021/04/16 00:03:27;;;;;;;6.05;2.35;;;28.90;35.60;;;;;;4999426;28;20045;-78
2021/04/16 00:05:55;;;;;;;5.53;2.30;;;29.10;35.90;;;;;;5003621;28;20022;-74
2021/04/16 00:08:26;;;;;;;4.38;2.35;;;29.00;36.20;;;;;;5003599;28;20052;-77
2021/04/16 00:10:57;;;;;;;2.67;1.65;;;29.00;33.00;;;;;;5007474;28;20030;-80
2021/04/16 00:13:26;;;;;;;4.60;2.95;;;28.60;34.20;;;;;;5002378;28;20523;-74
2021/04/16 00:15:55;;;;;;;3.38;1.40;;;28.40;34.50;;;;;;5003871;28;20133;-74
2021/04/16 00:18:27;;;;;;;4.75;2.00;;;28.50;34.20;;;;;;5002895;28;20156;-81
2021/04/16 00:20:56;;;;;;;9.27;2.30;;;28.60;34.70;;;;;;5002979;28;20052;-77
2021/04/16 00:23:24;;;;;;;4.50;1.60;;;29.30;34.60;;;;;;5002906;28;20492;-76
2021/04/16 00:25:52;;;;;;;7.25;2.47;;;29.40;34.00;;;;;;5001957;28;20034;-79
2021/04/16 00:28:19;;;;;;;8.18;2.30;;;29.30;33.10;;;;;;5002827;28;20056;-78
2021/04/16 00:31:00;;;;;;;3.65;1.88;;;29.60;34.50;;;;;;5004526;28;20118;-80
2021/04/16 00:33:27;;;;;;;4.32;1.73;;;29.80;34.70;;;;;;5005266;28;20029;-75
2021/04/16 00:35:56;;;;;;;5.88;2.13;;;29.80;33.30;;;;;;5003859;28;20018;-78
2021/04/16 00:38:25;;;;;;;3.75;1.55;;;30.10;33.20;;;;;;5006426;28;20026;-72
2021/04/16 00:40:57;;;;;;;3.00;1.65;;;30.10;33.30;;;;;;5002253;28;20105;-72
2021/04/16 00:43:28;;;;;;;4.00;1.95;;;30.40;33.00;;;;;;5002716;28;20315;-75
2021/04/16 00:46:12;;;;;;;5.20;1.80;;;30.30;32.70;;;;;;5006918;28;20045;-78
2021/04/16 00:48:52;;;;;;;4.13;1.65;;;30.40;33.20;;;;;;5005353;28;20110;-78
2021/04/16 00:51:34;;;;;;;4.85;1.65;;;30.40;33.10;;;;;;5007149;28;20140;-78
2021/04/16 00:54:03;;;;;;;3.92;1.30;;;30.60;32.50;;;;;;5004362;28;20435;-71
2021/04/16 00:56:31;;;;;;;3.53;1.35;;;30.70;33.40;;;;;;5005335;28;20049;-77
2021/04/16 00:59:00;;;;;;;2.42;1.25;;;30.40;32.10;;;;;;5007215;28;20033;-72
2021/04/16 01:01:27;;;;;;;4.25;1.92;;;30.40;32.70;;;;;;5003260;28;20109;-70
2021/04/16 01:03:55;;;;;;;3.85;1.50;;;30.40;32.80;;;;;;5003307;28;20084;-79
2021/04/16 01:06:23;;;;;;;4.25;1.50;;;30.30;31.70;;;;;;5001696;28;20037;-72
2021/04/16 01:08:51;;;;;;;5.95;2.17;;;30.20;32.60;;;;;;5001556;28;20030;-69
2021/04/16 01:11:19;;;;;;;3.95;1.35;;;30.20;31.90;;;;;;5005631;28;20129;-69
2021/04/16 01:13:48;;;;;;;6.25;1.88;;;30.10;32.90;;;;;;5004118;28;20065;-74
2021/04/16 01:16:21;;;;;;;3.60;1.58;;;30.30;33.20;;;;;;5003526;28;20022;-71
2021/04/16 01:18:51;;;;;;;2.63;1.50;;;30.90;32.60;;;;;;5005752;28;20021;-71
2021/04/16 01:21:35;;;;;;;3.33;1.40;;;31.30;32.60;;;;;;5003067;28;20142;-74
2021/04/16 01:24:22;;;;;;;2.67;1.20;;;31.00;32.50;;;;;;5004238;28;20053;-72
2021/04/16 01:26:50;;;;;;;3.03;1.45;;;31.10;31.30;;;;;;5005808;28;20040;-71
2021/04/16 01:29:18;;;;;;;2.88;1.52;;;31.20;31.60;;;;;;5006104;28;20026;-72
2021/04/16 01:31:51;;;;;;;2.00;0.95;;;31.60;33.20;;;;;;5003829;28;20117;-75
2021/04/16 01:34:27;;;;;;;3.08;0.93;;;31.40;29.50;;;;;;5004400;28;20030;-75
2021/04/16 01:36:58;;;;;;;3.75;1.05;;;31.40;31.20;;;;;;5004067;28;20145;-72
2021/04/16 01:39:28;;;;;;;2.90;0.73;;;31.50;29.60;;;;;;5005480;28;20026;-71
2021/04/16 01:41:56;;;;;;;1.95;0.90;;;31.40;30.00;;;;;;5004679;28;20038;-73
2021/04/16 01:44:28;;;;;;;2.13;0.60;;;31.40;30.00;;;;;;5001926;28;20354;-71
2021/04/16 01:47:05;;;;;;;1.67;0.82;;;31.50;29.10;;;;;;5003480;28;20034;-71
2021/04/16 01:49:41;;;;;;;1.50;0.90;;;30.80;29.40;;;;;;5006326;28;20022;-77
2021/04/16 01:52:13;;;;;;;5.45;0.93;;;29.30;30.80;;;;;;5003389;28;20041;-78
2021/04/16 01:54:43;;;;;;;2.00;0.60;;;28.60;31.70;;;;;;5002263;28;20017;-75
2021/04/16 01:57:17;;;;;;;4.43;0.50;;;28.00;32.50;;;;;;5000419;28;20091;-75
2021/04/16 01:59:46;;;;;;;5.80;1.08;;;28.10;33.00;;;;;;5001103;28;20120;-74
2021/04/16 02:02:21;;;;;;;5.97;1.33;;;28.00;34.40;;;;;;5000295;28;20430;-71
2021/04/16 02:04:48;;;;;;;4.57;0.90;;;28.30;35.90;;;;;;5000306;28;20033;-72
2021/04/16 02:07:16;;;;;;;4.05;0.80;;;28.20;35.80;;;;;;5001989;28;20037;-75
2021/04/16 02:09:43;;;;;;;5.28;1.30;;;28.40;36.10;;;;;;5003732;28;20092;-77
2021/04/16 02:12:14;;;;;;;4.57;1.35;;;28.80;35.90;;;;;;5001313;28;20041;-76
2021/04/16 02:14:42;;;;;;;5.28;1.15;;;29.20;37.20;;;;;;5002851;28;20042;-77
2021/04/16 02:17:12;;;;;;;3.13;1.20;;;29.00;37.00;;;;;;5000117;28;20065;-77
2021/04/16 02:19:40;;;;;;;5.18;1.45;;;28.80;37.60;;;;;;5005023;28;20048;-79
2021/04/16 02:22:15;;;;;;;7.45;1.63;;;28.30;39.00;;;;;;5006014;28;20535;-77
2021/04/16 02:25:09;;;;;;;6.50;1.75;;;27.20;39.20;;;;;;5002012;28;20472;-81
2021/04/16 02:27:37;;;;;;;6.65;1.70;;;26.50;40.60;;;;;;5003889;28;20048;-76
2021/04/16 02:30:13;;;;;;;4.78;1.17;;;26.20;41.30;;;;;;5006545;28;20026;-77
2021/04/16 02:32:40;;;;;;;6.45;1.75;;;26.50;41.10;;;;;;5005277;28;20507;-76
2021/04/16 02:35:09;;;;;;;5.68;1.50;;;26.00;43.90;;;;;;5002925;28;20076;-73
2021/04/16 02:37:37;;;;;;;6.55;2.13;;;25.60;46.20;;;;;;5000369;28;20025;-73
2021/04/16 02:40:19;;;;;;;7.03;2.00;;;25.50;45.80;;;;;;5000556;28;20041;-77
2021/04/16 02:42:52;;;;;;;6.28;1.45;;;25.40;45.80;;;;;;5001658;28;20046;-78
2021/04/16 02:45:22;;;;;;;9.50;2.10;;;26.10;45.80;;;;;;4999808;28;20056;-72
2021/04/16 02:47:49;;;;;;;4.55;1.38;;;26.30;45.40;;;;;;5004391;28;20030;-75
2021/04/16 02:50:22;;;;;;;5.90;1.52;;;26.30;44.60;;;;;;5003099;28;20465;-82
2021/04/16 02:52:50;;;;;;;5.03;1.27;;;26.40;45.50;;;;;;5005193;28;20105;-76
2021/04/16 02:55:18;;;;;;;4.05;1.38;;;26.80;44.30;;;;;;5001666;28;20034;-75
2021/04/16 02:57:45;;;;;;;8.63;1.80;;;27.20;45.60;;;;;;5000229;28;20033;-70
2021/04/16 03:00:21;;;;;;;6.75;2.00;;;26.70;45.30;;;;;;5003460;28;20035;-78
2021/04/16 03:02:47;;;;;;;;;;;26.90;45.40;;;;;;5005268;28;20046;-77
2021/04/16 03:05:15;;;;;;;5.88;1.33;;;26.70;46.30;;;;;;5001829;28;19916;-77
2021/04/16 03:07:42;;;;;;;8.13;1.90;;;27.10;46.20;;;;;;4999683;28;20121;-78
2021/04/16 03:10:13;;;;;;;8.02;2.00;;;27.50;45.20;;;;;;5003381;28;20026;-76
2021/04/16 03:12:40;;;;;;;5.78;1.65;;;27.20;45.40;;;;;;5002922;28;20476;-73
2021/04/16 03:15:09;;;;;;;9.80;1.80;;;27.30;46.90;;;;;;5003709;28;20042;-73
2021/04/16 03:17:38;;;;;;;8.40;1.83;;;27.50;48.00;;;;;;4998105;28;20033;-73
2021/04/16 03:20:07;;;;;;;9.90;2.47;;;27.40;47.70;;;;;;5005977;28;20463;-76
2021/04/16 03:22:36;;;;;;;9.15;2.03;;;27.50;47.60;;;;;;5003579;28;20048;-77
2021/04/16 03:25:05;;;;;;;6.68;1.52;;;27.30;47.70;;;;;;5007113;28;20048;-79
2021/04/16 03:27:32;;;;;;;9.45;1.85;;;26.60;49.30;;;;;;5005699;28;20099;-85
2021/04/16 03:30:00;;;;;;;8.18;2.20;;;26.30;49.90;;;;;;5007995;28;20250;-77
2021/04/16 03:32:28;;;;;;;11.73;2.65;;;26.50;51.00;;;;;;5004669;28;20053;-75
2021/04/16 03:34:56;;;;;;;11.15;2.42;;;26.30;51.50;;;;;;5006291;28;20030;-78
2021/04/16 03:37:24;;;;;;;16.35;2.63;;;26.00;50.60;;;;;;5004885;28;20834;-77
2021/04/16 03:39:51;;;;;;;10.38;2.08;;;26.50;50.40;;;;;;5005105;28;20100;-76
2021/04/16 03:42:20;;;;;;;11.32;2.50;;;26.50;50.30;;;;;;5001921;28;20068;-80
2021/04/16 03:44:47;;;;;;;9.00;2.10;;;26.30;50.10;;;;;;5009051;28;20038;-80
2021/04/16 03:47:16;;;;;;;5.43;1.65;;;25.50;51.80;;;;;;5006682;28;20084;-80
2021/04/16 03:49:45;;;;;;;8.57;2.28;;;24.70;53.90;;;;;;5006513;28;20026;-82
2021/04/16 03:52:15;;;;;;;8.13;2.28;;;24.20;55.20;;;;;;5006811;28;20116;-78
2021/04/16 03:54:42;;;;;;;8.68;1.60;;;24.10;55.80;;;;;;5004599;28;20041;-74
2021/04/16 03:57:10;;;;;;;9.23;2.08;;;24.40;54.80;;;;;;5007084;28;20034;-79
2021/04/16 03:59:37;;;;;;;7.90;1.98;;;24.20;54.90;;;;;;5007255;28;20030;-71
2021/04/16 04:02:04;;;;;;;6.47;1.80;;;23.90;55.80;;;;;;5005902;28;20113;-73
2021/04/16 04:04:33;;;;;;;6.22;1.40;;;23.80;56.00;;;;;;5000155;28;20037;-72
2021/04/16 04:07:00;;;;;;;10.27;2.95;;;23.70;56.40;;;;;;5003980;28;20109;-78
2021/04/16 04:09:28;;;;;;;7.07;1.50;;;23.90;55.90;;;;;;5006816;28;20153;-74
2021/04/16 04:11:55;;;;;;;10.25;2.83;;;24.30;54.70;;;;;;5004730;28;20028;-74
2021/04/16 04:14:22;;;;;;;13.38;3.78;;;24.60;54.40;;;;;;5001104;28;20408;-72
2021/04/16 04:16:54;;;;;;;16.83;2.00;;;24.90;53.30;;;;;;4987122;28;20030;-72
2021/04/16 04:19:24;;;;;;;10.38;2.25;;;24.80;54.10;;;;;;5001827;28;20025;-75
2021/04/16 04:21:52;;;;;;;10.90;2.17;;;24.60;55.20;;;;;;5003314;28;20034;-74
2021/04/16 04:24:21;;;;;;;9.60;2.40;;;24.60;55.20;;;;;;5003824;28;20038;-73
2021/04/16 04:26:49;;;;;;;10.00;3.30;;;24.20;56.50;;;;;;5009555;28;20034;-74
2021/04/16 04:29:19;;;;;;;11.63;2.45;;;23.80;57.00;;;;;;5007734;28;20476;-69
2021/04/16 04:31:47;;;;;;;11.27;3.42;;;23.60;57.80;;;;;;5002197;28;20033;-73
2021/04/16 04:34:18;;;;;;;6.13;1.45;;;23.60;58.30;;;;;;5005528;28;20037;-71
2021/04/16 04:36:47;;;;;;;11.55;2.10;;;23.60;57.20;;;;;;5006699;28;20036;-73
2021/04/16 04:39:14;;;;;;;8.27;1.58;;;23.60;57.70;;;;;;5007331;28;20034;-73
2021/04/16 04:41:43;;;;;;;7.38;2.35;;;23.70;57.20;;;;;;5007644;28;20033;-72
2021/04/16 04:44:11;;;;;;;7.22;1.88;;;23.80;56.50;;;;;;5006780;28;20036;-74
2021/04/16 04:46:39;;;;;;;7.90;2.15;;;23.80;56.60;;;;;;5005544;28;20499;-77
2021/04/16 04:49:08;;;;;;;8.15;1.48;;;23.70;56.90;;;;;;5007967;28;20855;-74
2021/04/16 04:51:37;;;;;;;6.75;1.50;;;23.40;57.90;;;;;;5007779;28;20424;-72
2021/04/16 04:54:07;;;;;;;10.13;2.22;;;23.20;58.20;;;;;;5002508;28;20014;-73
2021/04/16 04:56:35;;;;;;;12.77;2.35;;;23.00;59.80;;;;;;5007707;28;20046;-71
2021/04/16 04:59:04;;;;;;;10.00;2.30;;;22.90;60.30;;;;;;5008470;28;20034;-72
2021/04/16 05:01:32;;;;;;;5.32;1.73;;;22.90;59.60;;;;;;5005662;28;22004;-76
2021/04/16 05:03:59;;;;;;;7.07;1.85;;;23.00;60.40;;;;;;5009029;28;20108;-75
2021/04/16 05:06:27;;;;;;;12.90;1.90;;;23.00;60.20;;;;;;5008137;28;20531;-71
2021/04/16 05:08:54;;;;;;;8.20;1.30;;;23.00;60.00;;;;;;5006112;28;20039;-72
2021/04/16 05:11:22;;;;;;;8.30;2.17;;;22.90;59.90;;;;;;5005625;28;20101;-72
2021/04/16 05:13:53;;;;;;;9.30;2.00;;;22.80;59.80;;;;;;5007766;28;20419;-71
2021/04/16 05:16:21;;;;;;;11.48;1.85;;;22.70;59.40;;;;;;5007210;28;20468;-74
2021/04/16 05:18:50;;;;;;;11.85;1.75;;;22.60;60.30;;;;;;5008630;28;20022;-73
2021/04/16 05:21:18;;;;;;;5.70;1.85;;;22.60;60.40;;;;;;5010220;28;20034;-71
2021/04/16 05:23:47;;;;;;;9.13;2.28;;;22.50;59.40;;;;;;4992685;28;20124;-75
2021/04/16 05:26:16;;;;;;;8.30;1.60;;;22.50;60.10;;;;;;5007471;28;20018;-75
2021/04/16 05:28:43;;;;;;;7.35;1.70;;;22.40;60.30;;;;;;5008018;28;20033;-76
2021/04/16 05:31:12;;;;;;;4.30;1.27;;;22.20;60.30;;;;;;5005834;28;20496;-75
2021/04/16 05:33:39;;;;;;;6.80;1.75;;;22.10;60.80;;;;;;5007033;28;20018;-75
2021/04/16 05:36:07;;;;;;;10.85;1.92;;;22.20;61.50;;;;;;5000259;28;20136;-73
2021/04/16 05:38:34;;;;;;;6.95;2.10;;;22.20;61.10;;;;;;5007603;28;20017;-70
2021/04/16 05:41:02;;;;;;;23.40;2.80;;;22.20;61.60;;;;;;5002858;28;20197;-78
2021/04/16 05:43:31;;;;;;;7.57;1.75;;;22.10;62.00;;;;;;5004749;28;20048;-75
2021/04/16 05:45:58;;;;;;;12.52;2.80;;;22.30;61.10;;;;;;5004102;28;20045;-76
2021/04/16 05:48:26;;;;;;;10.57;1.73;;;22.40;60.70;;;;;;5004455;28;20030;-77
2021/04/16 05:50:53;;;;;;;5.88;1.52;;;22.50;61.20;;;;;;5004701;28;20048;-75
2021/04/16 05:53:20;;;;;;;8.93;2.63;;;22.40;60.90;;;;;;5005045;28;20029;-74
2021/04/16 05:55:48;;;;;;;6.50;1.77;;;22.20;60.90;;;;;;5002765;28;20112;-76
2021/04/16 05:58:15;;;;;;;7.18;1.98;;;22.10;61.80;;;;;;5002967;28;20127;-75
2021/04/16 06:00:43;;;;;;;12.40;2.05;;;22.00;61.90;;;;;;5006092;28;20097;-71
2021/04/16 06:03:11;;;;;;;9.57;2.00;;;21.90;62.10;;;;;;5003420;28;20042;-69
2021/04/16 06:05:39;;;;;;;9.23;1.83;;;21.80;63.00;;;;;;5003493;28;20026;-71
2021/04/16 06:08:10;;;;;;;10.35;2.22;;;21.80;62.40;;;;;;5003931;28;20041;-73
2021/04/16 06:10:37;;;;;;;7.82;1.85;;;21.80;62.00;;;;;;5006570;28;20155;-77
2021/04/16 06:13:05;;;;;;;5.68;1.50;;;22.00;62.00;;;;;;5003378;28;20514;-72
2021/04/16 06:15:33;;;;;;;9.63;1.40;;;21.80;62.20;;;;;;5003825;28;20519;-71
2021/04/16 06:18:00;;;;;;;4.28;1.65;;;21.70;62.90;;;;;;4998937;28;20567;-72
2021/04/16 06:20:28;;;;;;;5.93;1.60;;;21.50;63.20;;;;;;5000532;28;20053;-74
2021/04/16 06:22:58;;;;;;;10.15;2.10;;;21.40;63.50;;;;;;5005434;28;20191;-72
2021/04/16 06:25:34;;;;;;;9.45;1.88;;;21.30;64.10;;;;;;5005297;28;20603;-77
2021/04/16 06:28:03;;;;;;;9.35;2.17;;;21.20;64.80;;;;;;5006457;28;20040;-69
2021/04/16 06:30:31;;;;;;;4.53;1.10;;;21.10;64.80;;;;;;5002953;28;20069;-81
2021/04/16 06:33:14;;;;;;;9.55;1.77;;;21.10;65.00;;;;;;5003317;28;20029;-74
2021/04/16 06:35:54;;;;;;;9.10;2.00;;;21.00;65.40;;;;;;5001534;28;20046;-77
2021/04/16 06:38:29;;;;;;;10.77;2.30;;;20.90;65.10;;;;;;5003211;28;20476;-71
2021/04/16 06:40:57;;;;;;;;;;;21.00;65.00;;;;;;5003479;28;20037;-72
2021/04/16 06:43:28;;;;;;;7.18;1.77;;;21.10;65.10;;;;;;5004674;28;19925;-75
2021/04/16 06:46:00;;;;;;;15.00;1.52;;;21.00;64.80;;;;;;5000763;28;20105;-76
2021/04/16 06:48:27;;;;;;;9.27;1.90;;;20.70;65.30;;;;;;5001588;28;21622;-78
2021/04/16 06:51:00;;;;;;;6.95;2.30;;;20.60;66.00;;;;;;5002955;28;20355;-75
2021/04/16 06:53:57;;;;;;;11.32;1.75;;;20.60;66.00;;;;;;5006811;28;20829;-78
2021/04/16 06:56:43;;;;;;;9.90;1.60;;;20.50;66.50;;;;;;5007165;28;20038;-84
2021/04/16 06:59:11;;;;;;;7.83;1.50;;;20.50;66.40;;;;;;5005880;28;20041;-83
2021/04/16 07:01:59;;;;;;;6.95;1.38;;;20.60;66.40;;;;;;5008460;28;20050;-78
2021/04/16 07:04:53;;;;;;;7.85;1.40;;;20.70;65.90;;;;;;5007920;28;20121;-74
2021/04/16 07:07:38;;;;;;;8.02;1.52;;;20.70;65.80;;;;;;5007013;28;20033;-84
2021/04/16 07:10:18;;;;;;;8.65;2.25;;;20.60;66.30;;;;;;5008029;28;20092;-76
2021/04/16 07:12:46;;;;;;;8.73;2.60;;;20.60;66.60;;;;;;4998712;28;20457;-73
2021/04/16 07:15:35;;;;;;;13.43;2.25;;;20.50;66.80;;;;;;4988310;28;20029;-77
2021/04/16 07:18:05;;;;;;;8.57;1.48;;;20.40;67.00;;;;;;5006886;28;20084;-82
2021/04/16 07:20:32;;;;;;;8.20;1.92;;;20.40;66.90;;;;;;5006125;28;20029;-72
2021/04/16 07:23:01;;;;;;;6.53;1.85;;;20.40;67.00;;;;;;5006150;28;20033;-78
2021/04/16 07:25:32;;;;;;;7.28;1.98;;;20.30;67.40;;;;;;4996849;28;20532;-75
2021/04/16 07:28:06;;;;;;;8.20;1.77;;;20.30;67.20;;;;;;4996147;28;20061;-70
2021/04/16 07:30:44;;;;;;;11.57;1.77;;;20.20;67.20;;;;;;4992664;28;20029;-70
2021/04/16 07:33:32;;;;;;;9.25;2.30;;;20.10;67.20;;;;;;4996235;28;20167;-80
2021/04/16 07:36:33;;;;;;;10.00;2.17;;;20.10;67.70;;;;;;4987535;28;20049;-72
2021/04/16 07:39:29;;;;;;;8.02;2.00;;;20.00;67.60;;;;;;5006104;28;20042;-74
2021/04/16 07:42:20;;;;;;;8.90;1.70;;;20.00;67.70;;;;;;5006452;28;20045;-80
2021/04/16 07:45:07;;;;;;;6.28;1.67;;;20.00;68.00;;;;;;5005040;28;20030;-74
2021/04/16 07:47:36;;;;;;;9.35;2.10;;;19.90;68.20;;;;;;5004358;28;20433;-71
2021/04/16 07:50:28;;;;;;;10.48;2.30;;;19.90;67.90;;;;;;5005229;28;20077;-71
2021/04/16 07:52:56;;;;;;;6.10;1.73;;;19.90;68.40;;;;;;5006888;28;20033;-76
2021/04/16 07:55:31;;;;;;;8.52;2.00;;;19.80;68.10;;;;;;5004236;28;20034;-72
2021/04/16 07:58:21;;;;;;;5.82;1.42;;;19.70;68.60;;;;;;5003715;28;20475;-72
2021/04/16 08:00:51;;;;;;;5.20;1.20;;;19.80;68.80;;;;;;5002341;28;20063;-78
2021/04/16 08:03:23;;;;;;;8.15;2.17;;;19.80;68.60;;;;;;5007550;28;20041;-74
2021/04/16 08:05:52;;;;;;;11.43;1.60;;;19.80;68.80;;;;;;5009639;28;20119;-73
2021/04/16 08:08:26;;;;;;;6.43;1.45;;;19.70;68.80;;;;;;5008520;28;20041;-73
2021/04/16 08:10:59;;;;;;;12.60;2.15;;;19.60;69.10;;;;;;5008769;28;20492;-77
2021/04/16 08:13:38;;;;;;;9.10;1.98;;;19.60;69.50;;;;;;5023803;28;20052;-71
2021/04/16 08:16:18;;;;;;;5.57;1.40;;;19.60;69.50;;;;;;5007197;28;20483;-75
2021/04/16 08:19:07;;;;;;;10.38;1.50;;;19.60;69.70;;;;;;5002821;28;20030;-77
2021/04/16 08:21:38;;;;;;;12.20;2.47;;;19.50;69.40;;;;;;5006731;28;20018;-73
2021/04/16 08:24:16;;;;;;;7.70;1.20;;;19.50;69.40;;;;;;5003893;28;20042;-72
2021/04/16 08:26:49;;;;;;;3.17;1.77;;;19.50;69.60;;;;;;5001233;28;20018;-76
2021/04/16 08:29:48;;;;;;;7.68;1.95;;;19.60;69.40;;;;;;5003849;28;20030;-72
2021/04/16 08:32:34;;;;;;;7.93;1.60;;;19.50;69.40;;;;;;5001061;28;20479;-74
2021/04/16 08:35:26;;;;;;;6.60;1.23;;;19.60;69.40;;;;;;5004584;28;20065;-76
2021/04/16 08:38:06;;;;;;;5.78;1.75;;;19.60;69.40;;;;;;5002717;28;20073;-72
2021/04/16 08:40:44;;;;;;;8.27;1.20;;;19.70;69.40;;;;;;5004754;28;20390;-83
2021/04/16 08:43:34;;;;;;;8.70;1.65;;;19.90;69.00;;;;;;5005871;28;20092;-79
2021/04/16 08:46:26;;;;;;;7.18;1.70;;;20.00;68.60;;;;;;5008729;28;20109;-77
2021/04/16 08:48:55;;;;;;;6.10;1.63;;;19.90;68.90;;;;;;5004698;28;20021;-81
2021/04/16 08:51:30;;;;;;;8.18;1.50;;;19.80;69.30;;;;;;5006211;28;20434;-79
2021/04/16 08:54:30;;;;;;;5.07;1.70;;;19.80;69.10;;;;;;5013644;28;20045;-73
2021/04/16 08:57:15;;;;;;;8.77;1.98;;;19.70;69.40;;;;;;5008872;28;20026;-75
2021/04/16 09:00:07;;;;;;;9.77;1.50;;;19.80;69.20;;;;;;5023762;28;20025;-72
2021/04/16 09:02:44;;;;;;;7.35;1.60;;;19.60;69.80;;;;;;5003911;28;20133;-73
2021/04/16 09:05:18;;;;;;;4.95;2.05;;;19.50;69.90;;;;;;5005229;28;20073;-75
2021/04/16 09:08:13;;;;;;;5.20;1.83;;;19.50;70.60;;;;;;5009044;28;20727;-78
2021/04/16 09:10:51;;;;;;;8.35;2.67;;;19.40;70.50;;;;;;4983397;28;20125;-70
2021/04/16 09:13:39;;;;;;;14.00;3.30;;;19.40;70.70;;;;;;5004264;28;20057;-74
2021/04/16 09:16:38;;;;;;;6.25;2.97;;;19.30;71.30;;;;;;5005296;28;20116;-74
2021/04/16 09:19:23;;;;;;;6.85;2.60;;;19.20;71.40;;;;;;5004426;28;20032;-69
2021/04/16 09:22:06;;;;;;;7.18;2.90;;;19.20;71.60;;;;;;5002878;28;20054;-70
2021/04/16 09:24:54;;;;;;;9.07;3.22;;;19.10;71.50;;;;;;5004561;28;20038;-75
2021/04/16 09:27:27;;;;;;;7.63;1.52;;;19.20;71.70;;;;;;5002170;28;20042;-72
2021/04/16 09:30:06;;;;;;;7.65;2.15;;;19.10;72.10;;;;;;5001598;28;20132;-71
2021/04/16 09:32:42;;;;;;;9.07;1.92;;;19.10;72.50;;;;;;5020815;28;20029;-73
2021/04/16 09:35:20;;;;;;;11.70;1.95;;;19.10;72.30;;;;;;5004474;28;20026;-73
2021/04/16 09:37:49;;;;;;;12.68;2.58;;;19.00;72.10;;;;;;5003270;28;20510;-76
2021/04/16 09:40:20;;;;;;;8.00;1.98;;;19.00;72.70;;;;;;5004461;28;20030;-78
2021/04/16 09:42:58;;;;;;;5.82;2.47;;;19.00;72.50;;;;;;5005010;28;20045;-79
2021/04/16 09:45:34;;;;;;;7.25;2.25;;;19.00;72.70;;;;;;5005393;28;20088;-77
2021/04/16 09:48:21;;;;;;;7.43;2.20;;;19.10;72.50;;;;;;5005849;28;20481;-74
2021/04/16 09:50:51;;;;;;;6.50;1.90;;;19.00;72.80;;;;;;4999103;28;20095;-74
2021/04/16 09:53:37;;;;;;;10.00;2.30;;;19.00;72.90;;;;;;5010049;28;20026;-73
2021/04/16 09:56:19;;;;;;;8.70;1.88;;;19.00;72.90;;;;;;5022303;28;20114;-74
2021/04/16 09:59:01;;;;;;;10.30;1.95;;;18.90;72.90;;;;;;5009891;28;20496;-83
2021/04/16 10:01:28;;;;;;;9.65;2.08;;;18.90;72.90;;;;;;5004868;28;20137;-72
2021/04/16 10:04:01;;;;;;;6.25;1.73;;;18.90;72.90;;;;;;5007063;28;20080;-81
2021/04/16 10:06:34;;;;;;;5.43;1.10;;;18.90;73.00;;;;;;5005536;28;20021;-79
2021/04/16 10:09:10;;;;;;;5.05;1.50;;;19.00;72.90;;;;;;5008584;28;20049;-83
2021/04/16 10:11:37;;;;;;;;;;;18.90;72.90;;;;;;5007099;28;20173;-80
2021/04/16 10:14:24;;;;;;;4.63;1.50;;;19.00;72.90;;;;;;5005451;28;19944;-82
2021/04/16 10:17:04;;;;;;;6.30;1.85;;;19.00;73.10;;;;;;5005131;28;20026;-81
2021/04/16 10:19:38;;;;;;;6.00;1.88;;;19.00;73.10;;;;;;5009358;28;20041;-74
2021/04/16 10:22:30;;;;;;;4.38;1.45;;;19.00;72.90;;;;;;5022762;28;20045;-75
2021/04/16 10:26:32;;;;;;;5.47;1.73;;;18.90;73.40;;;;;;5003278;28;20034;-81
2021/04/16 10:34:44;;;;;;;8.13;2.35;;;18.90;73.00;;;;;;5005795;28;20533;-70
2021/04/16 11:01:09;;;;;;;;;;;18.40;75.10;;;;;;5003039;28;20084;-76
2021/04/16 12:38:10;;;;;;;11.88;3.53;;;17.40;81.30;;;;;;5005000;28;20052;-79
2021/04/16 12:40:44;;;;;;;6.55;4.18;;;17.40;82.00;;;;;;5004285;28;20034;-79
2021/04/16 12:43:12;;;;;;;11.07;4.60;;;17.30;82.00;;;;;;5006353;28;20026;-82
2021/04/16 12:45:39;;;;;;;11.52;4.38;;;17.20;82.20;;;;;;5004350;28;20156;-77
2021/04/16 12:48:07;;;;;;;12.55;3.55;;;17.30;82.70;;;;;;5001871;28;20061;-79
2021/04/16 12:50:34;;;;;;;7.05;2.58;;;17.30;83.00;;;;;;5003550;28;20124;-80
2021/04/16 12:53:05;;;;;;;11.02;3.47;;;17.20;83.30;;;;;;5005515;28;20034;-78
2021/04/16 12:55:32;;;;;;;11.82;3.13;;;17.20;83.40;;;;;;5005214;28;20031;-79
2021/04/16 12:58:06;;;;;;;10.43;3.15;;;17.20;83.40;;;;;;5002063;28;20532;-78
2021/04/16 13:00:38;;;;;;;9.98;2.92;;;17.20;83.70;;;;;;5000965;28;20034;-78
2021/04/16 13:03:18;;;;;;;10.38;3.22;;;17.20;83.00;;;;;;5001909;28;20045;-78
2021/04/16 13:05:48;;;;;;;11.43;3.08;;;17.20;82.90;;;;;;5002927;28;20025;-78
2021/04/16 13:08:16;;;;;;;11.60;2.38;;;17.20;83.20;;;;;;5003826;28;20026;-82
2021/04/16 13:10:44;;;;;;;12.52;3.05;;;17.10;83.40;;;;;;5002094;28;20030;-76
2021/04/16 13:13:11;;;;;;;11.48;2.58;;;17.10;83.30;;;;;;5001973;28;20030;-77
2021/04/16 13:15:39;;;;;;;14.07;2.97;;;17.10;83.60;;;;;;5000765;28;20724;-76
2021/04/16 13:18:16;;;;;;;7.60;2.20;;;17.00;83.30;;;;;;5001938;28;20041;-78
2021/04/16 13:20:47;;;;;;;8.30;2.33;;;17.00;83.60;;;;;;5001717;28;20096;-78
2021/04/16 13:23:14;;;;;;;9.80;3.10;;;17.00;83.70;;;;;;5002913;28;20130;-78
2021/04/16 13:25:42;;;;;;;5.22;1.73;;;17.00;83.50;;;;;;4984431;28;20705;-79
2021/04/16 13:28:09;;;;;;;10.52;2.38;;;16.90;83.80;;;;;;5004116;28;20030;-77
2021/04/16 13:30:37;;;;;;;8.00;2.45;;;16.90;83.70;;;;;;5001764;28;20103;-78
2021/04/16 13:33:10;;;;;;;13.40;2.78;;;16.90;83.90;;;;;;4999640;28;20113;-79
2021/04/16 13:35:43;;;;;;;5.28;1.95;;;16.90;83.90;;;;;;5015776;28;20120;-76
2021/04/16 13:38:21;;;;;;;8.02;3.15;;;16.80;84.20;;;;;;5001034;28;20030;-76
2021/04/16 13:40:49;;;;;;;9.93;2.53;;;16.70;84.60;;;;;;5000859;28;22297;-78
2021/04/16 13:43:17;;;;;;;9.82;2.17;;;16.80;84.50;;;;;;5004234;28;20084;-76
2021/04/16 13:45:44;;;;;;;9.07;1.90;;;16.70;84.50;;;;;;5002818;28;20037;-77
2021/04/16 13:48:15;;;;;;;8.65;1.90;;;16.70;84.80;;;;;;5002206;28;20564;-79
2021/04/16 13:50:43;;;;;;;6.68;2.00;;;16.70;85.10;;;;;;5000488;28;20030;-79
2021/04/16 13:53:14;;;;;;;9.48;2.60;;;16.60;85.00;;;;;;5007590;28;20283;-79
2021/04/16 13:55:43;;;;;;;5.88;2.78;;;16.50;85.50;;;;;;5001096;28;20041;-79
2021/04/16 13:58:10;;;;;;;10.43;3.53;;;16.50;85.40;;;;;;5005657;28;20084;-79
2021/04/16 14:00:39;;;;;;;6.82;2.83;;;16.50;85.80;;;;;;5002688;28;20034;-80
2021/04/16 14:03:14;;;;;;;10.10;3.20;;;16.50;85.50;;;;;;5003379;28;20473;-80
2021/04/16 14:05:51;;;;;;;6.85;2.33;;;16.40;85.80;;;;;;5003529;28;20022;-79
2021/04/16 14:08:32;;;;;;;8.20;2.17;;;16.40;85.80;;;;;;5004298;28;20033;-79
2021/04/16 14:11:00;;;;;;;10.00;2.38;;;16.40;85.90;;;;;;5008675;28;20161;-79
2021/04/16 14:13:29;;;;;;;8.48;2.58;;;16.40;85.60;;;;;;5001621;28;20125;-79
2021/04/16 14:16:00;;;;;;;8.00;2.10;;;16.40;85.80;;;;;;5004132;28;20091;-79
2021/04/16 14:18:35;;;;;;;10.13;2.15;;;16.30;86.10;;;;;;5003897;28;20436;-79
2021/04/16 14:21:08;;;;;;;6.00;1.47;;;16.40;86.00;;;;;;5002808;28;20048;-79
2021/04/16 14:23:35;;;;;;;9.02;1.85;;;16.30;86.10;;;;;;4985835;28;20347;-78
2021/04/16 14:26:04;;;;;;;5.72;1.52;;;16.30;86.00;;;;;;5000018;28;20491;-79
2021/04/16 14:28:32;;;;;;;12.40;2.33;;;16.40;86.30;;;;;;5003553;28;20061;-79
2021/04/16 14:30:59;;;;;;;7.07;2.50;;;16.30;85.50;;;;;;5004131;28;20078;-80
2021/04/16 14:33:33;;;;;;;9.57;1.77;;;16.40;85.90;;;;;;5005143;28;20464;-79
2021/04/16 14:36:03;;;;;;;6.93;2.25;;;16.40;86.10;;;;;;5001895;28;20038;-78
2021/04/16 14:38:31;;;;;;;6.40;1.63;;;16.30;85.70;;;;;;5004164;28;20022;-79
2021/04/16 14:40:59;;;;;;;10.85;2.08;;;16.30;86.00;;;;;;5006904;28;20029;-79
2021/04/16 14:43:34;;;;;;;7.55;1.58;;;16.30;86.20;;;;;;5007888;28;20121;-79
2021/04/16 14:46:02;;;;;;;8.25;2.30;;;16.20;86.30;;;;;;5005325;28;20026;-78
2021/04/16 14:48:32;;;;;;;12.60;2.55;;;16.20;86.30;;;;;;5007473;28;20140;-79
2021/04/16 14:51:06;;;;;;;8.52;2.72;;;16.20;86.00;;;;;;5006950;28;20065;-79
2021/04/16 14:53:40;;;;;;;9.20;2.15;;;16.20;86.20;;;;;;5003739;28;20030;-78
2021/04/16 14:56:10;;;;;;;10.85;2.03;;;16.30;86.00;;;;;;5007026;28;20046;-78
2021/04/16 14:58:40;;;;;;;5.78;1.75;;;16.30;85.90;;;;;;5005769;28;20033;-77
2021/04/16 15:01:16;;;;;;;11.63;2.50;;;16.30;85.60;;;;;;5008819;28;20037;-78
2021/04/16 15:03:43;;;;;;;9.10;2.08;;;16.30;85.90;;;;;;5006637;28;20041;-78
2021/04/16 15:06:17;;;;;;;6.05;1.45;;;16.40;85.70;;;;;;5007534;28;20026;-78
2021/04/16 15:08:57;;;;;;;25.63;4.85;;;16.40;85.80;;;;;;5008171;28;20026;-79
2021/04/16 15:11:40;;;;;;;7.95;1.90;;;16.40;85.50;;;;;;5005107;28;20022;-80
2021/04/16 15:14:21;;;;;;;8.40;2.70;;;16.40;85.60;;;;;;5004592;28;20111;-80
2021/04/16 15:16:51;;;;;;;6.65;1.73;;;16.40;85.50;;;;;;5010275;28;20050;-80
2021/04/16 15:19:40;;;;;;;7.03;2.15;;;16.40;85.50;;;;;;5012763;28;20022;-78